Main page
METAR-TAF:

METAR-TAF

Airports :

Beauvais, France

Beauvais–Tillé Airport

latitude: 49-28N, longitude: 002-07E, elevation: 109 m

Current weather observation

The report was made 17 minutes ago, at 00:00 UTC
Calm wind
Temperature 6°C
Humidity 93%
Pressure 1023 hPa
Visibility 10 km or more
no clouds below 1500 m and no cumulonimbus

METAR: LFOB 200000Z AUTO 00000KT CAVOK 06/05 Q1023 TEMPO 0500 FG

Time: 02:17 (00:17 UTC)

Forecast

The report was made 29 minutes ago, at 23:48 UTC
Forecast valid from 20 at 00 UTC to 20 at 24 UTC
Wind 3 kt from variable directions
Visibility: 3000 m
mist
Temporary
from 20 at 00 UTC to 20 at 06 UTC
Visibility: 1200 m
patches of fog
Probability 30% :
Temporary
from 20 at 01 UTC to 20 at 06 UTC
Visibility: 0500 m
fog
Becoming
from 20 at 06 UTC to 20 at 08 UTC
Visibility: 8000 m

TAF: LFOB 192348Z 2000/2024 VRB03KT 3000 BR NSC TEMPO 2000/2006 1200 BCFG PROB30 TEMPO 2001/2006 0500 FG BECMG 2006/2008 8000 NSW

Weather observations and forecasts of more than 4000 airports (METAR and TAF reports).

The available stations are represented by yellow and red dots on the map.

Hover mouse over dot to see the name of the station.

Then click to see weather observations and forecasts.

To change the map : click on the green buttons with a black cross to zoom in, on the green button with a dash to zoom out, or on the green arrows for adjacent maps.


METAR-TAF: